Time;durP1;ratioP1;P1;durP2;ratioP2;P2;SDS_P1;SDS_P2;PMS_P1;PMS_P2;Temp;Humidity;BMP_temperature;BMP_pressure;BME280_temperature;BME280_humidity;BME280_pressure;Samples;Min_cycle;Max_cycle;Signal;HPM_P1;HPM_P2
2022/10/20 07:52:52;;;;;;;13.93;10.00;;;12.50;99.90;;;;;;5127835;27;20477;-79
2022/10/20 07:55:19;;;;;;;13.93;9.00;;;12.70;99.90;;;;;;5093190;28;20200;-79
2022/10/20 07:57:44;;;;;;;11.93;9.40;;;12.80;99.90;;;;;;5094160;28;20574;-79
2022/10/20 08:00:11;;;;;;;11.87;9.23;;;12.90;99.90;;;;;;5094475;28;20192;-79
2022/10/20 08:02:39;;;;;;;11.23;9.10;;;13.00;99.90;;;;;;5094982;28;20673;-79
2022/10/20 08:05:06;;;;;;;10.10;8.40;;;13.10;99.90;;;;;;5094913;28;20211;-79
2022/10/20 08:07:32;;;;;;;11.60;9.20;;;13.20;99.90;;;;;;5093622;28;20626;-79
2022/10/20 08:09:58;;;;;;;10.70;8.67;;;13.30;99.90;;;;;;5094486;28;20206;-80
2022/10/20 08:12:24;;;;;;;12.77;9.37;;;13.60;99.90;;;;;;5093295;28;20204;-79
2022/10/20 08:14:50;;;;;;;10.50;7.83;;;13.90;99.90;;;;;;5093940;28;20195;-80
2022/10/20 08:17:17;;;;;;;9.43;7.83;;;14.40;99.90;;;;;;5092725;28;20541;-79
2022/10/20 08:19:42;;;;;;;9.27;7.00;;;15.10;99.90;;;;;;5093929;28;20184;-79
2022/10/20 08:22:08;;;;;;;10.70;6.87;;;15.70;99.90;;;;;;5094327;28;20268;-79
2022/10/20 08:24:34;;;;;;;8.07;6.77;;;15.90;99.90;;;;;;5094746;28;20188;-79
2022/10/20 08:27:00;;;;;;;7.70;6.40;;;15.90;99.90;;;;;;5096417;28;20180;-80
2022/10/20 08:29:26;;;;;;;7.20;6.50;;;16.20;99.90;;;;;;5091798;28;20187;-80
2022/10/20 08:31:52;;;;;;;8.43;6.07;;;16.60;99.90;;;;;;5092682;28;20289;-80
2022/10/20 08:34:17;;;;;;;8.37;6.80;;;17.10;99.90;;;;;;5092845;28;20642;-80
2022/10/20 08:36:43;;;;;;;8.20;7.23;;;17.50;99.90;;;;;;5093149;28;20196;-80
2022/10/20 08:39:09;;;;;;;7.90;6.47;;;17.50;99.90;;;;;;5093086;28;20173;-80
2022/10/20 08:41:38;;;;;;;10.13;7.43;;;17.10;99.90;;;;;;5091791;28;20196;-80
2022/10/20 08:44:06;;;;;;;8.17;6.83;;;16.90;99.90;;;;;;5091155;28;20646;-80
2022/10/20 08:46:35;;;;;;;8.27;6.73;;;16.70;99.90;;;;;;5091370;28;20271;-80
2022/10/20 08:49:03;;;;;;;10.03;7.20;;;16.60;99.90;;;;;;5090880;28;20182;-80
2022/10/20 08:51:37;;;;;;;7.50;6.67;;;16.70;99.90;;;;;;5092332;28;20204;-80
2022/10/20 08:54:04;;;;;;;8.97;6.80;;;17.20;99.90;;;;;;5090953;28;20531;-80
2022/10/20 08:56:33;;;;;;;7.73;6.43;;;17.90;99.90;;;;;;5091648;28;20589;-80
2022/10/20 08:59:00;;;;;;;8.00;6.20;;;18.60;99.90;;;;;;5090837;28;20534;-80
2022/10/20 09:01:29;;;;;;;8.07;6.33;;;19.10;99.90;;;;;;5092883;28;20192;-80
2022/10/20 09:04:17;;;;;;;8.60;6.63;;;19.00;99.90;;;;;;5080827;28;20202;-80
2022/10/20 09:06:46;;;;;;;9.60;6.77;;;18.50;99.90;;;;;;5077285;28;20157;-79
2022/10/20 09:09:18;;;;;;;9.10;6.80;;;17.80;99.90;;;;;;5077645;28;20170;-79
2022/10/20 09:11:44;;;;;;;7.70;6.10;;;17.60;99.90;;;;;;5077425;28;20201;-79
2022/10/20 09:14:11;;;;;;;7.40;5.97;;;18.10;99.90;;;;;;5078841;28;20585;-79
2022/10/20 09:16:40;;;;;;;7.33;5.30;;;18.60;99.90;;;;;;5078112;28;20177;-80
2022/10/20 09:19:14;;;;;;;6.43;5.83;;;18.80;99.90;;;;;;5077399;28;20181;-80
2022/10/20 09:21:41;;;;;;;5.93;5.43;;;18.90;99.90;;;;;;5077108;28;20196;-80
2022/10/20 09:24:06;;;;;;;9.20;5.60;;;19.40;99.90;;;;;;5078805;28;20174;-80
2022/10/20 09:26:44;;;;;;;6.80;5.40;;;19.50;99.90;;;;;;5079390;28;20167;-79
2022/10/20 09:29:15;;;;;;;8.50;5.17;;;19.20;99.90;;;;;;5078803;28;20185;-79
2022/10/20 09:31:47;;;;;;;5.93;5.07;;;19.00;99.90;;;;;;5078455;28;20207;-80
2022/10/20 09:34:30;;;;;;;5.40;4.90;;;18.80;99.90;;;;;;5078488;28;20171;-80
2022/10/20 09:37:11;;;;;;;5.13;4.40;;;18.70;99.90;;;;;;5078118;28;20161;-79
2022/10/20 09:39:45;;;;;;;6.77;4.43;;;18.70;99.90;;;;;;5077916;28;20633;-78
2022/10/20 09:42:34;;;;;;;5.67;4.73;;;18.60;99.90;;;;;;5076725;28;20177;-79
2022/10/20 09:45:20;;;;;;;4.90;4.13;;;18.50;99.90;;;;;;5086028;28;20174;-78
2022/10/20 09:47:50;;;;;;;5.13;4.63;;;18.40;99.90;;;;;;5094776;28;20183;-80
2022/10/20 09:50:30;;;;;;;4.50;4.07;;;18.60;99.90;;;;;;5094713;28;20220;-80
2022/10/20 09:52:58;;;;;;;6.07;4.30;;;18.90;99.90;;;;;;5080758;28;20187;-80
2022/10/20 09:55:31;;;;;;;6.77;4.10;;;19.40;99.90;;;;;;5078616;28;20166;-79
2022/10/20 09:58:00;;;;;;;5.73;4.13;;;19.70;99.90;;;;;;5077376;28;20215;-79
2022/10/20 10:00:30;;;;;;;4.60;4.03;;;19.80;99.90;;;;;;5078602;28;20190;-80
2022/10/20 10:03:20;;;;;;;5.37;4.13;;;19.80;99.90;;;;;;5077473;28;20188;-80
2022/10/20 10:05:58;;;;;;;4.80;4.20;;;19.70;99.90;;;;;;5079048;28;20155;-81
2022/10/20 10:08:40;;;;;;;5.40;3.73;;;19.90;99.90;;;;;;5078418;28;20183;-80
2022/10/20 10:11:18;;;;;;;4.50;4.10;;;20.20;99.90;;;;;;5077177;28;20211;-81
2022/10/20 10:13:46;;;;;;;7.37;4.10;;;20.50;99.90;;;;;;5076800;28;20169;-80
2022/10/20 10:16:15;;;;;;;7.83;4.33;;;20.70;99.90;;;;;;5078013;28;20170;-80
2022/10/20 10:18:44;;;;;;;4.57;3.90;;;20.90;99.90;;;;;;5077797;28;20185;-80
2022/10/20 10:21:12;;;;;;;4.97;3.50;;;20.90;99.90;;;;;;5079357;28;20671;-80
2022/10/20 10:23:54;;;;;;;4.33;3.43;;;20.90;99.90;;;;;;5075791;28;20205;-80
2022/10/20 10:26:44;;;;;;;4.47;3.67;;;21.00;99.90;;;;;;5077307;28;20174;-80
2022/10/20 10:29:22;;;;;;;4.67;3.97;;;20.70;99.90;;;;;;5077041;28;20164;-80
2022/10/20 10:32:24;;;;;;;3.97;3.60;;;20.40;99.90;;;;;;5075806;28;20732;-80
2022/10/20 10:35:06;;;;;;;5.37;4.07;;;20.40;99.90;;;;;;5076803;28;20185;-79
2022/10/20 10:37:32;;;;;;;5.60;3.90;;;20.50;99.90;;;;;;5075685;28;20246;-80
2022/10/20 10:39:58;;;;;;;4.97;4.40;;;20.60;99.90;;;;;;5075256;28;20745;-79
2022/10/20 10:42:43;;;;;;;6.33;4.87;;;20.50;99.90;;;;;;5077827;28;20252;-80
2022/10/20 10:45:18;;;;;;;4.93;4.53;;;20.40;99.90;;;;;;5077983;28;20165;-80
2022/10/20 10:48:03;;;;;;;7.27;4.80;;;20.30;99.90;;;;;;5076881;28;20175;-80
2022/10/20 10:50:37;;;;;;;6.87;4.77;;;20.40;99.90;;;;;;5077385;28;20662;-80
2022/10/20 10:53:08;;;;;;;6.70;4.67;;;20.30;99.90;;;;;;5077374;28;20173;-80
2022/10/20 10:56:16;;;;;;;6.17;4.73;;;19.80;99.90;;;;;;5078689;28;20637;-80
2022/10/20 10:59:11;;;;;;;10.00;5.10;;;19.50;99.90;;;;;;5070086;28;20182;-80
2022/10/20 11:02:04;;;;;;;9.77;5.03;;;19.20;99.90;;;;;;5075488;28;20795;-81
2022/10/20 11:04:55;;;;;;;7.03;5.50;;;19.20;99.90;;;;;;5077903;28;20184;-80
2022/10/20 11:07:50;;;;;;;5.67;5.07;;;19.10;99.90;;;;;;5078024;28;20204;-80
2022/10/20 11:10:30;;;;;;;5.53;4.60;;;19.10;99.90;;;;;;5077628;28;20257;-80
2022/10/20 11:13:26;;;;;;;5.73;4.80;;;19.10;99.90;;;;;;5077357;28;20571;-81
2022/10/20 11:16:45;;;;;;;6.73;4.67;;;19.00;99.90;;;;;;5077717;28;20179;-80
2022/10/20 11:19:25;;;;;;;6.60;5.10;;;18.90;99.90;;;;;;5056997;28;20185;-80
2022/10/20 11:22:19;;;;;;;6.30;5.03;;;18.80;99.90;;;;;;5078955;28;20180;-80
2022/10/20 11:25:04;;;;;;;5.63;5.13;;;18.70;99.90;;;;;;5078436;28;20157;-80
2022/10/20 11:27:35;;;;;;;7.40;5.20;;;18.60;99.90;;;;;;5078417;28;20165;-80
2022/10/20 11:30:18;;;;;;;5.80;5.20;;;18.50;99.90;;;;;;5077275;28;20197;-81
2022/10/20 11:33:02;;;;;;;5.97;5.37;;;18.40;99.90;;;;;;5077856;28;20559;-80
2022/10/20 11:35:34;;;;;;;6.23;5.50;;;18.30;99.90;;;;;;5078910;28;20177;-80
2022/10/20 11:38:31;;;;;;;7.10;5.90;;;18.20;99.90;;;;;;5078120;28;20192;-80
2022/10/20 11:41:06;;;;;;;7.73;5.33;;;18.10;99.90;;;;;;5078435;28;20195;-82
2022/10/20 11:43:33;;;;;;;7.27;5.83;;;18.20;99.90;;;;;;5079669;28;20618;-80
2022/10/20 11:46:21;;;;;;;10.87;5.83;;;18.40;99.90;;;;;;5077691;28;20179;-80
2022/10/20 11:48:51;;;;;;;10.80;6.47;;;18.60;99.90;;;;;;5078682;28;20176;-80
2022/10/20 11:51:29;;;;;;;7.40;6.07;;;18.80;99.90;;;;;;5077236;28;20266;-80
2022/10/20 11:54:16;;;;;;;7.87;5.67;;;18.90;99.90;;;;;;5077462;28;20200;-81
2022/10/20 11:57:03;;;;;;;6.83;6.00;;;19.00;99.90;;;;;;5077826;28;20501;-80
2022/10/20 11:59:53;;;;;;;11.87;6.37;;;18.80;99.90;;;;;;5078032;28;20161;-81
2022/10/20 12:02:57;;;;;;;8.57;5.87;;;18.70;99.90;;;;;;5078570;28;20173;-81
2022/10/20 12:05:25;;;;;;;8.47;6.43;;;18.60;99.90;;;;;;5075612;28;20192;-79
2022/10/20 12:08:30;;;;;;;8.63;6.30;;;18.60;99.90;;;;;;5074818;28;20179;-78
2022/10/20 12:11:30;;;;;;;12.57;6.80;;;18.50;99.90;;;;;;5075869;28;20211;-79
2022/10/20 12:14:14;;;;;;;11.03;6.10;;;18.20;99.90;;;;;;5078618;28;20176;-82
2022/10/20 12:16:52;;;;;;;7.63;6.60;;;18.00;99.90;;;;;;5076992;28;20171;-80
2022/10/20 12:19:25;;;;;;;9.17;6.00;;;17.90;99.90;;;;;;5076727;28;20642;-80
2022/10/20 12:21:55;;;;;;;6.63;5.87;;;17.70;99.90;;;;;;5077647;28;20197;-80
2022/10/20 12:24:39;;;;;;;6.97;6.27;;;17.60;99.90;;;;;;5076445;28;20270;-80
2022/10/20 12:27:08;;;;;;;10.53;6.37;;;17.50;99.90;;;;;;5078143;28;20173;-80
2022/10/20 12:29:34;;;;;;;10.27;6.33;;;17.40;99.90;;;;;;5076116;28;20184;-80
2022/10/20 12:32:24;;;;;;;7.10;6.40;;;17.30;99.90;;;;;;5076742;28;20202;-80
2022/10/20 12:34:57;;;;;;;10.00;6.47;;;17.30;99.90;;;;;;5077471;28;20692;-80
2022/10/20 12:37:22;;;;;;;7.47;6.43;;;17.20;99.90;;;;;;5076524;28;20169;-80
2022/10/20 12:39:49;;;;;;;8.30;6.03;;;17.20;99.90;;;;;;5081092;28;20183;-80
2022/10/20 12:42:37;;;;;;;12.33;6.60;;;17.20;99.90;;;;;;5080169;28;20179;-80
2022/10/20 12:45:07;;;;;;;10.70;6.53;;;17.20;99.90;;;;;;5079398;28;20231;-80
2022/10/20 12:47:35;;;;;;;9.40;6.33;;;17.30;99.90;;;;;;5080129;28;20700;-81
2022/10/20 12:50:20;;;;;;;9.73;6.23;;;17.30;99.90;;;;;;5079527;28;20208;-80
2022/10/20 12:52:46;;;;;;;6.57;5.87;;;17.20;99.90;;;;;;5079474;28;20548;-80
2022/10/20 12:55:30;;;;;;;8.70;6.10;;;17.20;99.90;;;;;;5077938;28;20187;-80
2022/10/20 12:58:11;;;;;;;9.90;6.70;;;17.20;99.90;;;;;;5082960;28;20163;-80
2022/10/20 13:00:36;;;;;;;10.87;6.17;;;17.10;99.90;;;;;;5091668;28;20195;-81
2022/10/20 13:03:42;;;;;;;9.57;6.47;;;17.00;99.90;;;;;;5095141;28;20179;-80
2022/10/20 13:06:23;;;;;;;9.00;6.43;;;16.90;99.90;;;;;;5086786;28;20166;-80
2022/10/20 13:09:09;;;;;;;8.40;5.87;;;16.70;99.90;;;;;;5078834;28;20258;-80
2022/10/20 13:11:34;;;;;;;8.17;6.10;;;16.60;99.90;;;;;;5078468;28;20263;-80
2022/10/20 13:14:17;;;;;;;6.33;5.57;;;16.50;99.90;;;;;;5078773;28;20273;-80
2022/10/20 13:17:05;;;;;;;17.03;8.80;;;16.50;99.90;;;;;;5079947;28;20165;-80
2022/10/20 13:19:56;;;;;;;16.00;8.80;;;16.40;99.90;;;;;;5078865;28;20699;-80
2022/10/20 13:22:48;;;;;;;9.73;7.03;;;16.40;99.90;;;;;;5077044;28;20190;-80
2022/10/20 13:25:31;;;;;;;10.57;6.67;;;16.50;99.90;;;;;;5079659;28;20165;-80
2022/10/20 13:28:12;;;;;;;9.50;7.13;;;16.50;99.90;;;;;;5078046;28;20173;-80
2022/10/20 13:30:53;;;;;;;10.83;6.37;;;16.50;99.90;;;;;;5079204;28;20190;-80
2022/10/20 13:33:30;;;;;;;10.03;7.67;;;16.50;99.90;;;;;;5078223;28;20180;-81
2022/10/20 13:36:04;;;;;;;8.30;7.13;;;16.40;99.90;;;;;;5079151;28;20165;-80
2022/10/20 13:38:52;;;;;;;11.17;7.73;;;16.60;99.90;;;;;;5079352;28;20513;-81
2022/10/20 13:41:35;;;;;;;9.23;6.53;;;16.60;99.90;;;;;;5078283;28;20203;-81
2022/10/20 13:44:20;;;;;;;10.20;6.57;;;16.80;99.90;;;;;;5081664;28;20201;-80
2022/10/20 13:47:02;;;;;;;8.80;6.67;;;17.20;99.90;;;;;;5088234;28;20170;-80
2022/10/20 13:49:55;;;;;;;9.60;6.77;;;17.70;99.90;;;;;;5088051;28;20176;-81
2022/10/20 13:52:21;;;;;;;7.77;6.83;;;17.80;99.90;;;;;;5077888;28;20714;-79
2022/10/20 13:54:49;;;;;;;12.47;6.17;;;17.90;99.90;;;;;;5078043;28;20178;-80
2022/10/20 13:57:25;;;;;;;10.00;6.33;;;17.90;99.90;;;;;;5077749;28;20179;-80
2022/10/20 14:00:19;;;;;;;13.10;7.10;;;17.90;99.90;;;;;;5076650;28;20206;-80
2022/10/20 14:03:17;;;;;;;10.87;6.30;;;17.80;99.90;;;;;;5077591;28;20192;-79
2022/10/20 14:05:42;;;;;;;8.43;5.87;;;17.60;99.90;;;;;;5074669;28;20214;-80
2022/10/20 14:08:10;;;;;;;10.13;6.63;;;17.50;99.90;;;;;;5076450;28;20640;-80
2022/10/20 14:10:53;;;;;;;11.17;7.27;;;17.40;99.90;;;;;;5076207;28;20297;-80
2022/10/20 14:13:23;;;;;;;13.37;7.23;;;17.30;99.90;;;;;;5077527;28;20530;-80
2022/10/20 14:15:54;;;;;;;12.07;6.80;;;17.20;99.90;;;;;;5076035;28;20636;-79
2022/10/20 14:18:26;;;;;;;10.30;7.13;;;17.00;99.90;;;;;;5075972;28;20659;-80
2022/10/20 14:21:01;;;;;;;12.80;6.93;;;16.90;99.90;;;;;;5077760;28;20274;-80
2022/10/20 14:23:34;;;;;;;9.87;6.27;;;16.90;99.90;;;;;;5077437;28;20200;-80
2022/10/20 14:26:01;;;;;;;9.17;5.70;;;16.80;99.90;;;;;;5077422;28;20211;-80
2022/10/20 14:28:31;;;;;;;13.03;6.43;;;16.70;99.90;;;;;;5076124;28;20180;-80
2022/10/20 14:30:58;;;;;;;14.40;6.97;;;16.60;99.90;;;;;;5077314;28;20237;-80
2022/10/20 14:33:25;;;;;;;8.90;5.97;;;16.50;99.90;;;;;;5077162;28;20265;-80
2022/10/20 14:35:53;;;;;;;11.03;6.40;;;16.40;99.90;;;;;;5075946;28;20202;-80
2022/10/20 14:38:28;;;;;;;8.17;6.17;;;16.40;99.90;;;;;;5077291;28;20184;-80
2022/10/20 14:40:56;;;;;;;14.20;6.77;;;16.40;99.90;;;;;;5078016;28;20196;-80
2022/10/20 14:43:37;;;;;;;11.00;6.97;;;16.40;99.90;;;;;;5077524;28;20174;-79
2022/10/20 14:46:05;;;;;;;7.73;6.60;;;16.30;99.90;;;;;;5076438;28;20541;-80
2022/10/20 14:48:37;;;;;;;9.50;6.87;;;16.30;99.90;;;;;;5077173;28;20178;-80
2022/10/20 14:51:34;;;;;;;11.47;6.33;;;16.30;99.90;;;;;;5076662;28;20205;-80
2022/10/20 14:54:18;;;;;;;12.87;6.90;;;16.30;99.90;;;;;;5077458;28;20171;-82
2022/10/20 14:56:45;;;;;;;9.23;6.97;;;16.30;99.90;;;;;;5075379;28;20267;-81
2022/10/20 14:59:17;;;;;;;10.73;7.67;;;16.30;99.90;;;;;;5076851;28;20588;-80
2022/10/20 15:02:11;;;;;;;20.80;13.20;;;16.30;99.90;;;;;;5076567;28;20336;-81
2022/10/20 15:04:48;;;;;;;7.70;6.90;;;16.30;99.90;;;;;;5077105;28;20239;-81
2022/10/20 15:07:26;;;;;;;9.87;6.93;;;16.30;99.90;;;;;;5076380;28;20209;-80
2022/10/20 15:09:57;;;;;;;11.07;6.80;;;16.20;99.90;;;;;;5076326;28;20187;-80
2022/10/20 15:12:34;;;;;;;9.67;6.50;;;16.20;99.90;;;;;;5074932;28;20242;-80
2022/10/20 15:15:17;;;;;;;9.07;6.60;;;16.20;99.90;;;;;;5074898;28;20169;-81
2022/10/20 15:17:45;;;;;;;9.27;6.73;;;16.20;99.90;;;;;;5075982;28;20564;-81
2022/10/20 15:20:33;;;;;;;10.73;7.43;;;16.10;99.90;;;;;;5076519;28;20306;-81
2022/10/20 15:23:15;;;;;;;11.87;6.37;;;16.10;99.90;;;;;;5075197;28;20172;-81
2022/10/20 15:25:44;;;;;;;9.33;6.67;;;16.10;99.90;;;;;;5076426;28;20165;-80
2022/10/20 15:28:42;;;;;;;11.67;8.57;;;16.00;99.90;;;;;;5076233;28;20173;-81
2022/10/20 15:31:19;;;;;;;10.57;6.87;;;16.00;99.90;;;;;;5076106;28;20574;-81
2022/10/20 15:33:45;;;;;;;10.60;7.33;;;16.00;99.90;;;;;;5076906;28;20239;-81
2022/10/20 15:36:25;;;;;;;11.87;7.57;;;16.00;99.90;;;;;;5076647;28;20273;-80
2022/10/20 15:38:50;;;;;;;11.03;7.77;;;15.90;99.90;;;;;;5076864;28;20607;-81
2022/10/20 15:41:29;;;;;;;10.60;7.90;;;15.90;99.90;;;;;;5077692;28;20196;-81
2022/10/20 15:43:55;;;;;;;10.73;7.87;;;15.90;99.90;;;;;;5076721;28;20181;-80
2022/10/20 15:46:21;;;;;;;9.90;7.17;;;15.80;99.90;;;;;;5076846;28;20181;-80
2022/10/20 15:48:47;;;;;;;13.90;7.80;;;15.70;99.90;;;;;;5076626;28;20184;-80
2022/10/20 15:51:21;;;;;;;11.27;7.73;;;15.60;99.90;;;;;;5076092;28;20701;-81
2022/10/20 15:53:48;;;;;;;13.77;8.73;;;15.60;99.90;;;;;;5077447;28;20201;-80
2022/10/20 15:56:14;;;;;;;15.37;8.53;;;15.50;99.90;;;;;;5075156;28;20191;-81
2022/10/20 15:58:40;;;;;;;8.47;7.10;;;15.50;99.90;;;;;;5076026;28;20168;-80
2022/10/20 16:01:06;;;;;;;11.87;7.40;;;15.40;99.90;;;;;;5075175;28;20731;-80
2022/10/20 16:03:31;;;;;;;9.23;7.27;;;15.30;99.90;;;;;;5074999;28;20547;-81
2022/10/20 16:05:57;;;;;;;17.27;9.47;;;15.30;99.90;;;;;;5076337;28;20177;-80
2022/10/20 16:08:22;;;;;;;9.90;8.77;;;15.30;99.90;;;;;;5075391;28;20183;-80
2022/10/20 16:10:48;;;;;;;16.37;7.97;;;15.20;99.90;;;;;;5075205;28;20192;-81
2022/10/20 16:13:17;;;;;;;11.90;8.50;;;15.20;99.90;;;;;;5077706;28;20184;-81
2022/10/20 16:15:42;;;;;;;20.20;8.90;;;15.20;99.90;;;;;;5087804;28;20632;-80
2022/10/20 16:18:09;;;;;;;16.03;8.77;;;15.20;99.90;;;;;;5091282;28;20180;-79
2022/10/20 16:20:35;;;;;;;13.53;8.20;;;15.10;99.90;;;;;;5086618;28;20196;-80
2022/10/20 16:23:01;;;;;;;11.60;7.80;;;15.10;99.90;;;;;;5082476;28;20191;-82
2022/10/20 16:25:26;;;;;;;16.67;9.03;;;15.10;99.90;;;;;;5079664;28;20182;-81
2022/10/20 16:27:52;;;;;;;10.13;8.43;;;15.00;99.90;;;;;;5078492;28;20271;-80
2022/10/20 16:30:18;;;;;;;14.93;9.00;;;15.00;99.90;;;;;;5080370;28;20650;-81
2022/10/20 16:32:44;;;;;;;10.57;8.67;;;15.00;99.90;;;;;;5078221;28;20204;-81
2022/10/20 16:35:10;;;;;;;16.00;9.57;;;15.00;99.90;;;;;;5080497;28;20169;-81
2022/10/20 16:37:35;;;;;;;19.87;11.73;;;15.00;99.90;;;;;;5078476;28;20177;-81
2022/10/20 16:40:02;;;;;;;15.60;11.27;;;14.90;99.90;;;;;;5080375;28;20204;-81
2022/10/20 16:42:31;;;;;;;13.80;9.43;;;14.90;99.90;;;;;;5080016;28;20548;-81
2022/10/20 16:44:57;;;;;;;14.03;9.43;;;14.90;99.90;;;;;;5078862;28;20177;-81
2022/10/20 16:47:24;;;;;;;12.23;7.93;;;14.90;99.90;;;;;;5078968;28;20181;-81
2022/10/20 16:49:50;;;;;;;18.27;10.23;;;14.80;99.90;;;;;;5080540;28;20192;-81
2022/10/20 16:52:16;;;;;;;14.30;8.63;;;14.80;99.90;;;;;;5079296;28;20215;-82
2022/10/20 16:54:41;;;;;;;15.43;9.10;;;14.70;99.90;;;;;;5080698;28;20184;-81
2022/10/20 16:57:10;;;;;;;14.60;8.50;;;14.70;99.90;;;;;;5080199;28;20247;-81
2022/10/20 16:59:36;;;;;;;10.43;8.53;;;14.60;99.90;;;;;;5080905;28;20215;-80
2022/10/20 17:02:02;;;;;;;11.87;8.83;;;14.50;99.90;;;;;;5080618;28;20177;-80
2022/10/20 17:04:28;;;;;;;15.23;10.07;;;14.50;99.90;;;;;;5082102;28;20189;-80
2022/10/20 17:06:53;;;;;;;17.77;10.90;;;14.50;99.90;;;;;;5080818;28;20646;-81
2022/10/20 17:09:19;;;;;;;19.73;14.77;;;14.40;99.90;;;;;;5080525;28;20173;-80
2022/10/20 17:11:45;;;;;;;20.67;14.83;;;14.40;99.90;;;;;;5080294;28;20207;-80
2022/10/20 17:14:10;;;;;;;17.80;11.40;;;14.30;99.90;;;;;;5079671;28;20168;-81
2022/10/20 17:16:38;;;;;;;17.97;10.27;;;14.30;99.90;;;;;;5080044;28;20196;-80
2022/10/20 17:19:07;;;;;;;16.63;11.40;;;14.30;99.90;;;;;;5079349;28;20631;-80
2022/10/20 17:21:34;;;;;;;15.07;10.73;;;14.20;99.90;;;;;;5080634;28;20242;-80
2022/10/20 17:24:00;;;;;;;22.17;11.33;;;14.10;99.90;;;;;;5079634;28;20180;-79
2022/10/20 17:26:29;;;;;;;14.50;11.47;;;14.10;99.90;;;;;;5081539;28;20177;-80
2022/10/20 17:28:59;;;;;;;17.73;12.90;;;14.10;99.90;;;;;;5080849;28;20176;-81
2022/10/20 17:31:26;;;;;;;17.30;12.80;;;14.00;99.90;;;;;;5080877;28;20258;-80
2022/10/20 17:33:52;;;;;;;17.90;12.90;;;14.00;99.90;;;;;;5081173;28;20169;-80
2022/10/20 17:36:20;;;;;;;21.43;14.03;;;14.00;99.90;;;;;;5080175;28;20627;-80
2022/10/20 17:38:46;;;;;;;24.83;14.77;;;13.90;99.90;;;;;;5081010;28;20246;-80
2022/10/20 17:41:14;;;;;;;28.87;15.57;;;13.90;99.90;;;;;;5079710;28;20197;-80
2022/10/20 17:43:40;;;;;;;26.90;15.20;;;13.70;99.90;;;;;;5078755;28;20177;-80
2022/10/20 17:46:09;;;;;;;40.63;18.00;;;13.80;99.90;;;;;;5079964;28;20180;-79
2022/10/20 17:48:36;;;;;;;27.70;15.80;;;13.70;99.90;;;;;;5078864;28;20177;-79
2022/10/20 17:51:15;;;;;;;23.33;15.80;;;13.70;99.90;;;;;;5079220;28;20223;-80
2022/10/20 17:53:44;;;;;;;25.77;15.00;;;13.60;99.90;;;;;;5079833;28;20684;-80
2022/10/20 17:56:34;;;;;;;23.40;15.33;;;13.50;99.90;;;;;;5077785;28;20173;-80
2022/10/20 17:59:02;;;;;;;27.57;19.03;;;13.50;99.90;;;;;;5079325;28;20176;-80
2022/10/20 18:01:29;;;;;;;42.43;26.53;;;13.40;99.90;;;;;;5079278;28;20670;-80
2022/10/20 18:03:57;;;;;;;44.60;26.40;;;13.30;99.90;;;;;;5079450;28;20175;-80
2022/10/20 18:06:24;;;;;;;37.87;25.07;;;13.30;99.90;;;;;;5077865;28;20219;-80
2022/10/20 18:08:53;;;;;;;35.37;22.33;;;13.20;99.90;;;;;;5078841;28;20529;-80
2022/10/20 18:11:24;;;;;;;34.50;25.10;;;13.20;99.90;;;;;;5077335;28;20212;-80
2022/10/20 18:13:50;;;;;;;28.83;19.53;;;13.20;99.90;;;;;;5078899;28;20161;-80
2022/10/20 18:16:19;;;;;;;25.57;18.80;;;13.10;99.90;;;;;;5079137;28;20218;-80
2022/10/20 18:18:45;;;;;;;27.60;18.23;;;13.10;99.90;;;;;;5078915;28;20173;-81
2022/10/20 18:21:12;;;;;;;26.67;17.37;;;13.00;99.90;;;;;;5079363;28;20705;-80
2022/10/20 18:23:40;;;;;;;25.37;18.63;;;13.00;99.90;;;;;;5079022;28;20169;-81
2022/10/20 18:26:11;;;;;;;28.13;17.23;;;12.90;99.90;;;;;;5086772;28;20181;-80
2022/10/20 18:28:37;;;;;;;32.93;17.93;;;12.80;99.90;;;;;;5082798;28;20176;-80
2022/10/20 18:31:08;;;;;;;31.87;18.00;;;12.90;99.90;;;;;;5078914;28;20228;-81
2022/10/20 18:33:34;;;;;;;25.20;17.63;;;12.90;99.90;;;;;;5078818;28;20169;-80
2022/10/20 18:36:04;;;;;;;29.30;19.03;;;12.90;99.90;;;;;;5078827;28;20172;-81
2022/10/20 18:38:33;;;;;;;29.13;18.57;;;12.90;99.90;;;;;;5077619;28;20175;-80
2022/10/20 18:41:09;;;;;;;24.73;17.97;;;12.90;99.90;;;;;;5077517;28;20197;-81
2022/10/20 18:43:35;;;;;;;24.30;17.33;;;12.80;99.90;;;;;;5077430;28;20618;-80
2022/10/20 18:46:01;;;;;;;24.33;17.50;;;12.80;99.90;;;;;;5079103;28;20161;-81
2022/10/20 18:48:28;;;;;;;26.37;16.83;;;12.80;99.90;;;;;;5078734;28;20570;-81
2022/10/20 18:50:56;;;;;;;32.67;20.17;;;12.80;99.90;;;;;;5078980;28;20215;-82
2022/10/20 18:53:22;;;;;;;36.57;19.77;;;12.80;99.90;;;;;;5079537;28;20676;-81
2022/10/20 18:56:02;;;;;;;32.20;19.67;;;12.80;99.90;;;;;;5078586;28;20595;-81
2022/10/20 18:58:29;;;;;;;30.30;20.93;;;12.60;99.90;;;;;;5080200;28;20172;-82
2022/10/20 19:01:00;;;;;;;37.90;20.57;;;12.80;99.90;;;;;;5079095;28;20197;-81
2022/10/20 19:03:29;;;;;;;34.67;19.83;;;12.80;99.90;;;;;;5080380;28;20180;-81
2022/10/20 19:06:16;;;;;;;29.70;18.87;;;12.80;99.90;;;;;;5081043;28;20173;-81
2022/10/20 19:08:44;;;;;;;31.27;18.63;;;12.80;99.90;;;;;;5077550;28;20168;-81
2022/10/20 19:11:12;;;;;;;31.30;18.33;;;12.70;99.90;;;;;;5076412;28;20673;-81
2022/10/20 19:13:38;;;;;;;28.97;19.30;;;12.80;99.90;;;;;;5077443;28;20176;-81
2022/10/20 19:16:14;;;;;;;37.33;19.93;;;12.80;99.90;;;;;;5077112;28;20236;-81
2022/10/20 19:18:43;;;;;;;27.53;18.60;;;12.80;99.90;;;;;;5078165;28;20207;-81
2022/10/20 19:21:09;;;;;;;34.30;19.90;;;12.80;99.90;;;;;;5076679;28;20193;-81
2022/10/20 19:23:38;;;;;;;28.43;19.20;;;12.80;99.90;;;;;;5078129;28;20180;-81
2022/10/20 19:26:08;;;;;;;29.67;19.20;;;12.70;99.90;;;;;;5078461;28;20177;-82
2022/10/20 19:28:39;;;;;;;27.90;18.47;;;12.70;99.90;;;;;;5078523;28;20213;-81
2022/10/20 19:31:20;;;;;;;30.63;18.67;;;12.60;99.90;;;;;;5077156;28;20204;-81
2022/10/20 19:33:47;;;;;;;33.67;18.67;;;12.60;99.90;;;;;;5077395;28;20571;-81
2022/10/20 19:36:13;;;;;;;30.73;18.27;;;12.60;99.90;;;;;;5077295;28;20173;-81
2022/10/20 19:38:39;;;;;;;32.87;18.93;;;12.60;99.90;;;;;;5077021;28;20649;-81
2022/10/20 19:41:05;;;;;;;24.80;16.77;;;12.60;99.90;;;;;;5075966;28;20196;-81
2022/10/20 19:43:36;;;;;;;23.07;15.27;;;12.60;99.90;;;;;;5077748;28;20169;-81
2022/10/20 19:46:03;;;;;;;24.10;16.27;;;12.60;99.90;;;;;;5077203;28;20193;-81
2022/10/20 19:48:29;;;;;;;22.40;14.17;;;12.50;99.90;;;;;;5077195;28;20717;-81
2022/10/20 19:50:54;;;;;;;24.50;15.67;;;12.50;99.90;;;;;;5077309;28;20236;-81
2022/10/20 19:53:20;;;;;;;25.93;15.03;;;12.50;99.90;;;;;;5077825;28;20165;-81
2022/10/20 19:55:47;;;;;;;20.87;14.00;;;12.50;99.90;;;;;;5077622;28;20240;-81
2022/10/20 19:58:13;;;;;;;23.93;15.03;;;12.50;99.90;;;;;;5077333;28;20528;-81
2022/10/20 20:00:44;;;;;;;21.97;15.47;;;12.60;99.90;;;;;;5077636;28;20193;-82
2022/10/20 20:03:09;;;;;;;24.03;15.93;;;12.60;99.90;;;;;;5082536;28;20180;-81
2022/10/20 20:05:35;;;;;;;25.30;15.77;;;12.50;99.90;;;;;;5080416;28;20185;-81
2022/10/20 20:08:01;;;;;;;27.53;16.00;;;12.50;99.90;;;;;;5076274;28;20225;-81
2022/10/20 20:10:27;;;;;;;25.80;16.57;;;12.50;99.90;;;;;;5075848;28;20662;-81
2022/10/20 20:12:52;;;;;;;30.23;20.73;;;12.60;99.90;;;;;;5075927;28;20232;-81
2022/10/20 20:15:18;;;;;;;30.77;20.40;;;12.50;99.90;;;;;;5078134;28;20222;-81
2022/10/20 20:17:43;;;;;;;24.20;17.20;;;12.60;99.90;;;;;;5075574;28;20177;-81
2022/10/20 20:20:09;;;;;;;32.60;17.00;;;12.50;99.90;;;;;;5076892;28;20731;-81
2022/10/20 20:22:35;;;;;;;25.30;17.33;;;12.60;99.90;;;;;;5074667;28;20695;-81
2022/10/20 20:25:00;;;;;;;29.97;16.27;;;12.50;99.90;;;;;;5076833;28;20177;-80
2022/10/20 20:27:26;;;;;;;28.10;17.57;;;12.50;99.90;;;;;;5076131;28;20678;-81
2022/10/20 20:29:52;;;;;;;22.43;15.40;;;12.50;99.90;;;;;;5076080;28;20665;-81
2022/10/20 20:32:17;;;;;;;25.00;16.83;;;12.50;99.90;;;;;;5074911;28;20204;-81
2022/10/20 20:34:43;;;;;;;22.80;14.20;;;12.50;99.90;;;;;;5074565;28;20203;-81
2022/10/20 20:37:09;;;;;;;22.20;14.90;;;12.60;99.90;;;;;;5075920;28;20165;-81
2022/10/20 20:39:34;;;;;;;19.60;14.00;;;12.60;99.90;;;;;;5074797;28;20169;-81
2022/10/20 20:42:00;;;;;;;18.03;12.70;;;12.60;99.90;;;;;;5074312;28;20176;-81
2022/10/20 20:44:26;;;;;;;17.60;12.50;;;12.70;99.90;;;;;;5073262;28;20188;-81
2022/10/20 20:46:52;;;;;;;16.27;12.50;;;12.70;99.90;;;;;;5072697;28;20200;-84
2022/10/20 20:49:18;;;;;;;20.73;13.53;;;12.80;99.90;;;;;;5079318;28;20669;-82
2022/10/20 20:51:43;;;;;;;17.80;12.63;;;12.80;99.90;;;;;;5073265;28;20214;-81
2022/10/20 20:54:09;;;;;;;18.20;12.97;;;12.80;99.90;;;;;;5073770;28;20169;-81
2022/10/20 20:56:35;;;;;;;20.00;13.30;;;12.80;99.90;;;;;;5074073;28;20169;-82
2022/10/20 20:59:01;;;;;;;17.37;13.37;;;12.90;99.90;;;;;;5076255;28;20172;-80